Time;durP1;ratioP1;P1;durP2;ratioP2;P2;SDS_P1;SDS_P2;PMS_P1;PMS_P2;Temp;Humidity;BMP_temperature;BMP_pressure;BME280_temperature;BME280_humidity;BME280_pressure;Samples;Min_cycle;Max_cycle;Signal;HPM_P1;HPM_P2
2022/04/24 00:01:24;;;;;;;1.10;0.60;;;12.30;97.20;;;;;;5033149;28;20405;-73
2022/04/24 00:03:50;;;;;;;2.13;1.23;;;12.30;97.80;;;;;;5033145;28;20164;-73
2022/04/24 00:06:15;;;;;;;0.90;0.70;;;12.30;98.30;;;;;;5033004;28;20410;-73
2022/04/24 00:08:41;;;;;;;1.30;0.80;;;12.20;98.60;;;;;;5031507;28;20175;-74
2022/04/24 00:11:06;;;;;;;1.47;1.20;;;12.20;99.00;;;;;;5048458;28;20175;-73
2022/04/24 00:13:37;;;;;;;0.90;0.63;;;12.20;99.30;;;;;;5033056;28;20171;-76
2022/04/24 00:16:06;;;;;;;1.27;0.83;;;12.20;99.40;;;;;;5048313;28;20174;-76
2022/04/24 00:18:32;;;;;;;1.93;1.03;;;12.10;99.90;;;;;;5032547;28;20426;-74
2022/04/24 00:20:58;;;;;;;1.20;1.10;;;12.10;99.90;;;;;;5032814;28;20403;-76
2022/04/24 00:23:24;;;;;;;0.90;0.70;;;12.00;99.90;;;;;;5032702;28;20413;-74
2022/04/24 00:25:49;;;;;;;0.80;0.60;;;12.00;99.90;;;;;;5032821;28;20838;-75
2022/04/24 00:28:15;;;;;;;0.80;0.60;;;11.90;99.90;;;;;;5031074;28;20203;-75
2022/04/24 00:30:40;;;;;;;1.27;0.73;;;11.90;99.90;;;;;;5032637;28;20162;-76
2022/04/24 00:33:06;;;;;;;0.90;0.80;;;11.80;99.90;;;;;;5032902;28;20172;-76
2022/04/24 00:35:31;;;;;;;0.80;0.60;;;11.70;99.90;;;;;;5032477;28;20527;-74
2022/04/24 00:37:57;;;;;;;1.00;0.73;;;11.70;99.90;;;;;;5031485;28;20194;-74
2022/04/24 00:40:23;;;;;;;0.80;0.50;;;11.60;99.90;;;;;;5047842;28;20533;-74
2022/04/24 00:42:49;;;;;;;0.80;0.60;;;11.60;99.90;;;;;;5032501;28;20407;-76
2022/04/24 00:45:15;;;;;;;1.00;0.90;;;11.50;99.90;;;;;;5032468;28;20168;-76
2022/04/24 00:47:44;;;;;;;0.80;0.50;;;11.40;99.90;;;;;;5047324;28;20986;-74
2022/04/24 00:50:10;;;;;;;0.80;0.57;;;11.40;99.90;;;;;;5032238;28;20433;-75
2022/04/24 00:52:37;;;;;;;0.80;0.60;;;11.30;99.90;;;;;;5032324;28;20489;-75
2022/04/24 00:55:03;;;;;;;1.47;1.23;;;11.30;99.90;;;;;;5032121;28;20429;-76
2022/04/24 00:57:28;;;;;;;2.50;0.83;;;11.30;99.90;;;;;;5032490;28;21189;-76
2022/04/24 00:59:54;;;;;;;1.07;0.73;;;11.30;99.90;;;;;;5032323;28;20402;-76
2022/04/24 01:02:19;;;;;;;1.27;0.60;;;11.20;99.90;;;;;;5032334;28;20172;-74
2022/04/24 01:04:45;;;;;;;1.30;0.90;;;11.20;99.90;;;;;;5047384;28;20548;-74
2022/04/24 01:07:11;;;;;;;1.10;0.80;;;11.10;99.90;;;;;;5031755;28;20239;-74
2022/04/24 01:09:37;;;;;;;0.80;0.50;;;11.10;99.90;;;;;;5032048;28;20667;-75
2022/04/24 01:12:04;;;;;;;0.80;0.70;;;11.00;99.90;;;;;;5030836;28;20410;-75
2022/04/24 01:14:31;;;;;;;1.20;0.60;;;10.90;99.90;;;;;;5030748;28;20580;-75
2022/04/24 01:16:57;;;;;;;1.20;1.10;;;10.90;99.90;;;;;;5032068;28;20434;-74
2022/04/24 01:19:25;;;;;;;1.00;0.90;;;10.80;99.90;;;;;;5030286;28;20898;-75
2022/04/24 01:21:51;;;;;;;0.80;0.80;;;10.70;99.90;;;;;;5032003;28;20786;-75
2022/04/24 01:24:19;;;;;;;2.87;1.30;;;10.70;99.90;;;;;;5032076;28;20402;-76
2022/04/24 01:26:45;;;;;;;0.80;0.60;;;10.60;99.90;;;;;;5031735;28;20211;-76
2022/04/24 01:29:11;;;;;;;1.10;0.60;;;10.50;99.90;;;;;;5031716;28;20412;-76
2022/04/24 01:31:37;;;;;;;0.80;0.60;;;10.50;99.90;;;;;;5031703;28;20891;-76
2022/04/24 01:34:03;;;;;;;0.97;0.60;;;10.40;99.90;;;;;;5032129;28;20402;-76
2022/04/24 01:36:28;;;;;;;0.80;0.70;;;10.40;99.90;;;;;;5031862;28;20923;-76
2022/04/24 01:38:54;;;;;;;1.00;0.80;;;10.30;99.90;;;;;;5031798;28;20250;-75
2022/04/24 01:41:20;;;;;;;0.80;0.50;;;10.30;99.90;;;;;;5031774;28;20172;-75
2022/04/24 01:43:47;;;;;;;1.00;0.90;;;10.20;99.90;;;;;;5031818;28;20172;-74
2022/04/24 01:46:12;;;;;;;1.37;0.70;;;10.20;99.90;;;;;;5031635;28;20169;-74
2022/04/24 01:48:38;;;;;;;1.00;0.80;;;10.10;99.90;;;;;;5032267;28;20461;-75
2022/04/24 01:51:05;;;;;;;1.10;1.00;;;10.10;99.90;;;;;;5035731;28;20195;-76
2022/04/24 01:53:31;;;;;;;0.80;0.60;;;10.00;99.90;;;;;;5034404;28;20202;-76
2022/04/24 01:55:58;;;;;;;1.00;0.90;;;10.00;99.90;;;;;;5050899;28;20480;-76
2022/04/24 01:58:25;;;;;;;0.80;0.60;;;9.90;99.90;;;;;;5035242;28;21155;-76
2022/04/24 02:00:51;;;;;;;0.80;0.60;;;9.90;99.90;;;;;;5035413;28;20419;-74
2022/04/24 02:03:18;;;;;;;0.80;0.50;;;9.90;99.90;;;;;;5035420;28;20786;-74
2022/04/24 02:05:43;;;;;;;0.80;0.50;;;9.90;99.90;;;;;;5035348;28;20413;-74
2022/04/24 02:08:09;;;;;;;1.63;0.77;;;9.90;99.90;;;;;;5034906;28;20468;-75
2022/04/24 02:10:34;;;;;;;2.00;0.63;;;9.80;99.90;;;;;;5035429;28;20176;-74
2022/04/24 02:13:00;;;;;;;0.93;0.67;;;9.80;99.90;;;;;;5033969;28;20172;-74
2022/04/24 02:15:25;;;;;;;0.80;0.60;;;9.80;99.90;;;;;;5035323;28;20539;-75
2022/04/24 02:17:51;;;;;;;0.80;0.50;;;9.80;99.90;;;;;;5034768;28;20277;-75
2022/04/24 02:20:16;;;;;;;0.90;0.77;;;9.80;99.90;;;;;;5035395;28;20171;-74
2022/04/24 02:22:42;;;;;;;2.00;1.73;;;9.80;99.90;;;;;;5035075;28;20265;-74
2022/04/24 02:25:07;;;;;;;0.80;0.50;;;9.80;99.90;;;;;;5035129;28;20171;-76
2022/04/24 02:27:34;;;;;;;0.80;0.50;;;9.80;99.90;;;;;;5050028;28;20202;-75
2022/04/24 02:30:00;;;;;;;0.80;0.50;;;9.80;99.90;;;;;;5035018;28;20214;-75
2022/04/24 02:32:26;;;;;;;0.87;0.60;;;9.70;99.90;;;;;;5034610;28;20402;-76
2022/04/24 02:34:51;;;;;;;0.90;0.70;;;9.70;99.90;;;;;;5034937;28;20402;-75
2022/04/24 02:37:17;;;;;;;0.80;0.50;;;9.70;99.90;;;;;;5034690;28;21023;-74
2022/04/24 02:39:43;;;;;;;2.27;2.07;;;9.70;99.90;;;;;;5033458;28;20230;-75
2022/04/24 02:42:09;;;;;;;1.20;1.10;;;9.70;99.90;;;;;;5034750;28;20186;-75
2022/04/24 02:44:34;;;;;;;0.80;0.60;;;9.70;99.90;;;;;;5034660;28;20176;-74
2022/04/24 02:47:00;;;;;;;1.87;1.50;;;9.70;99.90;;;;;;5034439;28;20702;-74
2022/04/24 02:49:26;;;;;;;1.63;1.53;;;9.70;99.90;;;;;;5034406;28;20164;-76
2022/04/24 02:51:51;;;;;;;1.20;0.60;;;9.70;99.90;;;;;;5033321;28;20934;-74
2022/04/24 02:54:17;;;;;;;1.10;1.00;;;9.70;99.90;;;;;;5034314;28;20172;-75
2022/04/24 02:56:42;;;;;;;0.80;0.70;;;9.70;99.90;;;;;;5034399;28;20191;-75
2022/04/24 02:59:09;;;;;;;0.80;0.70;;;9.70;99.90;;;;;;5033503;28;20632;-74
2022/04/24 03:01:34;;;;;;;1.00;0.90;;;9.70;99.90;;;;;;5033062;28;20195;-76
2022/04/24 03:04:00;;;;;;;0.80;0.60;;;9.70;99.90;;;;;;5033476;28;20414;-75
2022/04/24 03:06:26;;;;;;;0.90;0.70;;;9.70;99.90;;;;;;5034254;28;20229;-75
2022/04/24 03:08:51;;;;;;;1.63;1.53;;;9.70;99.90;;;;;;5034000;28;20413;-75
2022/04/24 03:11:17;;;;;;;0.80;0.60;;;9.70;99.90;;;;;;5034288;28;20160;-75
2022/04/24 03:13:42;;;;;;;1.03;0.93;;;9.70;99.90;;;;;;5034000;28;20335;-75
2022/04/24 03:16:09;;;;;;;0.80;0.70;;;9.70;99.90;;;;;;5034149;28;20167;-75
2022/04/24 03:18:34;;;;;;;0.80;0.77;;;9.70;99.90;;;;;;5033874;28;20179;-75
2022/04/24 03:21:00;;;;;;;1.30;0.90;;;9.70;99.90;;;;;;5034206;28;20493;-75
2022/04/24 03:23:25;;;;;;;0.83;0.57;;;9.70;99.90;;;;;;5032692;28;20182;-74
2022/04/24 03:25:51;;;;;;;1.47;0.70;;;9.70;99.90;;;;;;5033963;28;20179;-75
2022/04/24 03:28:17;;;;;;;1.00;0.90;;;9.60;99.90;;;;;;5033400;28;20210;-75
2022/04/24 03:30:43;;;;;;;0.90;0.70;;;9.50;99.90;;;;;;5033825;28;20182;-75
2022/04/24 03:33:09;;;;;;;0.90;0.70;;;9.50;99.90;;;;;;5049222;28;20414;-75
2022/04/24 03:35:34;;;;;;;0.80;0.60;;;9.40;99.90;;;;;;5033715;28;20413;-73
2022/04/24 03:38:00;;;;;;;0.80;0.60;;;9.40;99.90;;;;;;5033441;28;20229;-74
2022/04/24 03:40:26;;;;;;;1.67;0.90;;;9.40;99.90;;;;;;5033598;28;20636;-75
2022/04/24 03:42:51;;;;;;;0.80;0.60;;;9.30;99.90;;;;;;5033470;28;20183;-75
2022/04/24 03:45:17;;;;;;;0.80;0.70;;;9.20;99.90;;;;;;5033242;28;20180;-76
2022/04/24 03:47:43;;;;;;;2.53;1.17;;;9.20;99.90;;;;;;5033104;28;20207;-76
2022/04/24 03:50:09;;;;;;;1.20;0.80;;;9.10;99.90;;;;;;5033577;28;20167;-76
2022/04/24 03:52:34;;;;;;;0.80;0.60;;;9.00;99.90;;;;;;5033353;28;20448;-74
2022/04/24 03:55:00;;;;;;;0.80;0.60;;;9.00;99.90;;;;;;5033167;28;20923;-74
2022/04/24 03:57:26;;;;;;;0.80;0.50;;;9.00;99.90;;;;;;5033044;28;20191;-74
2022/04/24 03:59:52;;;;;;;1.33;0.73;;;8.90;99.90;;;;;;5033111;28;20468;-75
2022/04/24 04:02:17;;;;;;;0.80;0.60;;;8.90;99.90;;;;;;5031175;28;20179;-75
2022/04/24 04:04:43;;;;;;;0.80;0.60;;;8.80;99.90;;;;;;5033225;28;20167;-75
2022/04/24 04:07:08;;;;;;;0.80;0.60;;;8.80;99.90;;;;;;5032987;28;20211;-75
2022/04/24 04:09:34;;;;;;;0.80;0.50;;;8.80;99.90;;;;;;5033011;28;20160;-75
2022/04/24 04:11:59;;;;;;;0.90;0.67;;;8.70;99.90;;;;;;5032879;28;20174;-75
2022/04/24 04:14:25;;;;;;;0.80;0.50;;;8.70;99.90;;;;;;5048061;28;20171;-75
2022/04/24 04:16:51;;;;;;;1.33;1.23;;;8.70;99.90;;;;;;5032826;28;20198;-75
2022/04/24 04:19:17;;;;;;;0.80;0.73;;;8.60;99.90;;;;;;5031546;28;20265;-74
2022/04/24 04:21:45;;;;;;;0.80;0.50;;;8.60;99.90;;;;;;5031570;28;20468;-75
2022/04/24 04:24:11;;;;;;;2.03;1.00;;;8.60;99.90;;;;;;5048216;28;20199;-74
2022/04/24 04:26:37;;;;;;;0.70;0.50;;;8.60;99.90;;;;;;5030961;28;20438;-75
2022/04/24 04:29:02;;;;;;;0.77;0.60;;;8.60;99.90;;;;;;5032650;28;20894;-75
2022/04/24 04:31:28;;;;;;;2.40;1.53;;;8.60;99.90;;;;;;5031421;28;20175;-74
2022/04/24 04:33:54;;;;;;;1.43;0.80;;;8.50;99.90;;;;;;5031618;28;20714;-75
2022/04/24 04:36:20;;;;;;;0.70;0.50;;;8.60;99.90;;;;;;5032573;28;20168;-74
2022/04/24 04:38:45;;;;;;;0.97;0.87;;;8.50;99.90;;;;;;5032337;28;20180;-75
2022/04/24 04:41:11;;;;;;;0.80;0.60;;;8.50;99.90;;;;;;5032624;28;20964;-75
2022/04/24 04:43:37;;;;;;;1.33;0.73;;;8.50;99.90;;;;;;5032545;28;20425;-75
2022/04/24 04:46:03;;;;;;;1.03;0.90;;;8.50;99.90;;;;;;5032551;28;20168;-75
2022/04/24 04:48:28;;;;;;;5.57;3.10;;;8.50;99.90;;;;;;5032233;28;20215;-75
2022/04/24 04:50:54;;;;;;;0.87;0.63;;;8.50;99.90;;;;;;5031225;28;20171;-74
2022/04/24 04:53:23;;;;;;;1.83;1.73;;;8.50;99.90;;;;;;5031096;28;20175;-75
2022/04/24 04:55:50;;;;;;;0.80;0.60;;;8.50;99.90;;;;;;5032358;28;20198;-75
2022/04/24 04:58:15;;;;;;;1.90;1.13;;;8.60;99.90;;;;;;5032060;28;20953;-75
2022/04/24 05:00:41;;;;;;;2.30;0.80;;;8.60;99.90;;;;;;5032270;28;20402;-75
2022/04/24 05:03:07;;;;;;;0.90;0.80;;;8.70;99.90;;;;;;5032327;28;20421;-75
2022/04/24 05:05:33;;;;;;;1.27;1.00;;;8.70;99.90;;;;;;5032425;28;20171;-75
2022/04/24 05:07:58;;;;;;;1.03;0.93;;;8.80;99.90;;;;;;5030452;28;20982;-75
2022/04/24 05:10:24;;;;;;;0.90;0.70;;;8.90;99.90;;;;;;5032169;28;20167;-75
2022/04/24 05:12:50;;;;;;;0.90;0.70;;;9.00;99.90;;;;;;5032292;28;20254;-75
2022/04/24 05:15:16;;;;;;;1.27;1.10;;;9.10;99.90;;;;;;5030871;28;20262;-75
2022/04/24 05:17:43;;;;;;;0.87;0.80;;;9.20;99.90;;;;;;5031735;28;20190;-75
2022/04/24 05:20:10;;;;;;;0.80;0.50;;;9.30;99.90;;;;;;5032042;28;20424;-76
2022/04/24 05:22:37;;;;;;;1.10;0.80;;;9.50;99.90;;;;;;5031514;28;20408;-75
2022/04/24 05:25:04;;;;;;;1.30;1.20;;;9.60;99.90;;;;;;5032061;28;20776;-75
2022/04/24 05:27:31;;;;;;;1.93;1.43;;;9.80;99.90;;;;;;5031874;28;20449;-75
2022/04/24 05:29:56;;;;;;;0.90;0.77;;;10.00;99.90;;;;;;5032008;28;20413;-76
2022/04/24 05:32:22;;;;;;;2.37;1.20;;;10.20;99.90;;;;;;5032013;28;20410;-75
2022/04/24 05:34:48;;;;;;;1.03;0.87;;;10.40;99.90;;;;;;5031987;28;20179;-75
2022/04/24 05:37:13;;;;;;;1.00;0.80;;;10.50;99.90;;;;;;5047342;28;20200;-76
2022/04/24 05:39:39;;;;;;;0.87;0.87;;;10.70;99.90;;;;;;5031717;28;20179;-75
2022/04/24 05:42:05;;;;;;;1.83;1.73;;;10.90;99.90;;;;;;5032012;28;20257;-75
2022/04/24 05:44:30;;;;;;;0.80;0.67;;;11.10;99.90;;;;;;5030476;28;20185;-75
2022/04/24 05:46:56;;;;;;;1.43;1.33;;;11.20;99.90;;;;;;5031941;28;20788;-75
2022/04/24 05:49:21;;;;;;;1.70;1.30;;;11.40;99.90;;;;;;5031597;28;20172;-75
2022/04/24 05:51:47;;;;;;;1.53;1.40;;;11.70;99.90;;;;;;5047089;28;20179;-75
2022/04/24 05:54:12;;;;;;;1.73;0.93;;;11.90;99.90;;;;;;5031534;28;20246;-75
2022/04/24 05:56:38;;;;;;;1.30;0.73;;;12.10;99.90;;;;;;5030481;28;20207;-75
2022/04/24 05:59:04;;;;;;;1.10;1.00;;;12.30;99.90;;;;;;5031383;28;20178;-75
2022/04/24 06:01:30;;;;;;;1.03;0.93;;;12.50;99.90;;;;;;5031800;28;20899;-75
2022/04/24 06:03:56;;;;;;;2.90;1.20;;;12.60;99.90;;;;;;5030376;28;20505;-75
2022/04/24 06:06:21;;;;;;;1.00;0.87;;;12.80;99.90;;;;;;5031637;28;20684;-75
2022/04/24 06:08:47;;;;;;;2.00;1.20;;;12.90;99.90;;;;;;5031306;28;20230;-75
2022/04/24 06:11:13;;;;;;;2.50;2.30;;;13.10;99.90;;;;;;5031627;28;20172;-75
2022/04/24 06:13:42;;;;;;;1.80;1.27;;;13.30;99.90;;;;;;5031605;28;20259;-74
2022/04/24 06:16:07;;;;;;;1.53;1.03;;;13.40;99.90;;;;;;5031494;28;20168;-75
2022/04/24 06:18:33;;;;;;;3.10;2.00;;;13.60;99.90;;;;;;5031266;28;20422;-75
2022/04/24 06:20:59;;;;;;;1.37;1.27;;;13.80;99.90;;;;;;5031667;28;20232;-75
2022/04/24 06:23:27;;;;;;;1.20;1.00;;;14.20;99.90;;;;;;5031314;28;20176;-75
2022/04/24 06:25:52;;;;;;;2.60;1.60;;;15.20;99.90;;;;;;5031482;28;20191;-76
2022/04/24 06:28:18;;;;;;;1.17;0.90;;;16.50;99.90;;;;;;5031187;28;20462;-76
2022/04/24 06:30:43;;;;;;;2.13;1.20;;;17.90;99.90;;;;;;5030172;28;20183;-75
2022/04/24 06:33:10;;;;;;;1.40;1.10;;;19.20;99.90;;;;;;5031547;28;20717;-75
2022/04/24 06:35:37;;;;;;;1.73;1.63;;;19.60;98.40;;;;;;5033156;28;20171;-76
2022/04/24 06:38:02;;;;;;;2.03;1.77;;;19.50;94.20;;;;;;5033257;28;20465;-76
2022/04/24 06:40:28;;;;;;;3.70;1.30;;;19.20;91.40;;;;;;5033571;28;20946;-75
2022/04/24 06:43:02;;;;;;;2.53;2.00;;;19.00;90.30;;;;;;5034855;28;20167;-76
2022/04/24 06:45:28;;;;;;;2.50;1.33;;;18.80;89.20;;;;;;5034836;28;20286;-75
2022/04/24 06:47:58;;;;;;;1.20;1.10;;;18.70;89.50;;;;;;5034390;28;20466;-76
2022/04/24 06:50:25;;;;;;;1.53;1.33;;;18.60;88.80;;;;;;5034834;28;20959;-75
2022/04/24 06:52:59;;;;;;;1.27;1.17;;;18.50;88.50;;;;;;5034719;28;20402;-75
2022/04/24 06:55:26;;;;;;;1.83;1.53;;;18.50;87.30;;;;;;5034490;28;20422;-76
2022/04/24 06:57:52;;;;;;;2.80;1.57;;;18.70;88.60;;;;;;5034274;28;20428;-75
2022/04/24 07:00:19;;;;;;;2.27;1.63;;;19.20;90.00;;;;;;5033371;28;20939;-76
2022/04/24 07:02:45;;;;;;;3.03;2.03;;;19.60;87.50;;;;;;5033311;28;20183;-76
2022/04/24 07:05:11;;;;;;;1.50;1.00;;;20.00;85.00;;;;;;5049765;28;20965;-76
2022/04/24 07:07:36;;;;;;;2.07;1.40;;;20.20;83.10;;;;;;5034169;28;20501;-76
2022/04/24 07:10:02;;;;;;;2.20;1.63;;;20.50;79.40;;;;;;5034481;28;20168;-76
2022/04/24 07:12:29;;;;;;;3.00;1.47;;;20.50;77.70;;;;;;5033258;28;20250;-76
2022/04/24 07:14:55;;;;;;;2.53;2.33;;;21.10;77.50;;;;;;5034574;28;20718;-76
2022/04/24 07:17:21;;;;;;;1.40;1.30;;;21.80;74.10;;;;;;5033027;28;20434;-76
2022/04/24 07:19:48;;;;;;;2.30;1.70;;;22.40;70.50;;;;;;5033140;28;20179;-76
2022/04/24 07:22:16;;;;;;;3.03;1.30;;;23.50;68.20;;;;;;5034496;28;20421;-76
2022/04/24 07:24:42;;;;;;;1.30;1.13;;;24.90;62.80;;;;;;5034226;28;20418;-76
2022/04/24 07:27:07;;;;;;;2.60;2.10;;;25.90;57.70;;;;;;5034273;28;20457;-76
2022/04/24 07:29:33;;;;;;;2.23;2.03;;;26.40;53.20;;;;;;5034411;28;20722;-76
2022/04/24 07:31:58;;;;;;;4.70;2.80;;;26.50;51.30;;;;;;5049657;28;20184;-76
2022/04/24 07:34:24;;;;;;;1.90;1.67;;;26.70;50.00;;;;;;5034272;28;20659;-76
2022/04/24 07:36:49;;;;;;;2.07;1.80;;;26.60;49.00;;;;;;5034468;28;20196;-76
2022/04/24 07:39:15;;;;;;;1.87;1.40;;;26.50;48.60;;;;;;5032824;28;20182;-76
2022/04/24 07:41:40;;;;;;;2.60;2.40;;;26.30;48.60;;;;;;5032872;28;20178;-76
2022/04/24 07:44:06;;;;;;;1.77;1.67;;;26.30;48.40;;;;;;5034354;28;20186;-76
2022/04/24 07:46:34;;;;;;;4.40;2.00;;;26.90;48.60;;;;;;5033585;28;20661;-76
2022/04/24 07:48:59;;;;;;;4.20;3.13;;;28.20;48.30;;;;;;5033997;28;20403;-76
2022/04/24 07:51:25;;;;;;;1.43;1.33;;;28.80;45.50;;;;;;5033874;28;21021;-76
2022/04/24 07:53:51;;;;;;;2.13;1.93;;;29.20;45.00;;;;;;5049877;28;20199;-76
2022/04/24 07:56:16;;;;;;;2.13;1.70;;;30.50;43.50;;;;;;5034081;28;20529;-76
2022/04/24 07:58:42;;;;;;;2.60;1.93;;;30.70;41.60;;;;;;5032578;28;20176;-76
2022/04/24 08:01:07;;;;;;;2.33;2.10;;;30.60;40.80;;;;;;5034060;28;20171;-76
2022/04/24 08:03:33;;;;;;;3.73;3.53;;;30.30;40.50;;;;;;5033759;28;20175;-76
2022/04/24 08:05:58;;;;;;;1.80;1.70;;;30.30;41.10;;;;;;5033680;28;20548;-76
2022/04/24 08:08:24;;;;;;;2.70;2.17;;;30.70;41.00;;;;;;5031972;28;20579;-76
2022/04/24 08:10:57;;;;;;;1.30;1.20;;;30.90;40.70;;;;;;5033865;28;20188;-76
2022/04/24 08:13:24;;;;;;;2.53;2.33;;;31.00;40.50;;;;;;5033885;28;20407;-76
2022/04/24 08:15:51;;;;;;;3.70;2.27;;;31.80;40.10;;;;;;5033729;28;20414;-76
2022/04/24 08:18:17;;;;;;;1.77;1.67;;;33.10;38.40;;;;;;5048235;28;20445;-76
2022/04/24 08:20:44;;;;;;;3.63;2.20;;;34.20;37.40;;;;;;5048782;28;20988;-77
2022/04/24 08:23:11;;;;;;;2.63;2.43;;;35.40;36.50;;;;;;5032360;28;21021;-76
2022/04/24 08:25:37;;;;;;;2.37;2.17;;;36.60;35.00;;;;;;5033348;28;20406;-77
2022/04/24 08:28:08;;;;;;;2.80;2.50;;;38.00;33.00;;;;;;5032940;28;20458;-77
2022/04/24 08:30:35;;;;;;;3.13;2.50;;;39.10;31.40;;;;;;5033407;28;20398;-77
2022/04/24 08:33:01;;;;;;;2.77;2.07;;;39.60;30.00;;;;;;5033228;28;20915;-75
2022/04/24 08:35:27;;;;;;;2.07;1.87;;;39.40;30.10;;;;;;5033292;28;20552;-75
2022/04/24 08:37:52;;;;;;;2.77;2.07;;;38.70;29.70;;;;;;5033292;28;20192;-75
2022/04/24 08:40:20;;;;;;;2.77;2.57;;;37.90;29.40;;;;;;5033826;28;20410;-75
2022/04/24 08:42:46;;;;;;;2.40;2.20;;;37.10;29.90;;;;;;5033523;28;20258;-75
2022/04/24 08:45:14;;;;;;;3.30;2.47;;;37.00;29.90;;;;;;5033393;28;20954;-75
2022/04/24 08:47:41;;;;;;;3.53;3.33;;;36.80;29.80;;;;;;5032964;28;20571;-75
2022/04/24 08:50:07;;;;;;;2.30;2.10;;;36.50;30.10;;;;;;5031980;28;20406;-76
2022/04/24 08:52:33;;;;;;;2.90;2.40;;;36.10;29.90;;;;;;5033329;28;20498;-76
2022/04/24 08:54:59;;;;;;;2.73;2.53;;;35.50;30.40;;;;;;5033232;28;20856;-75
2022/04/24 08:57:30;;;;;;;3.43;2.40;;;34.70;30.60;;;;;;5033053;28;20198;-76
2022/04/24 09:00:07;;;;;;;2.33;2.13;;;34.30;31.00;;;;;;5033329;28;20922;-75
2022/04/24 09:02:33;;;;;;;2.90;2.70;;;34.00;31.30;;;;;;5033398;28;20390;-75
2022/04/24 09:04:59;;;;;;;2.03;1.53;;;33.70;31.80;;;;;;5031968;28;20422;-75
2022/04/24 09:07:33;;;;;;;6.00;2.43;;;33.70;32.40;;;;;;5033262;28;20468;-76
2022/04/24 09:10:11;;;;;;;2.10;1.90;;;33.50;32.00;;;;;;5033647;28;20197;-76
2022/04/24 09:12:38;;;;;;;2.80;2.40;;;33.60;32.60;;;;;;5033482;28;20409;-75
2022/04/24 09:15:04;;;;;;;2.50;2.30;;;34.00;32.30;;;;;;5033058;28;20899;-76
2022/04/24 09:17:32;;;;;;;2.80;2.60;;;34.10;32.10;;;;;;5032611;28;20465;-75
2022/04/24 09:19:59;;;;;;;2.90;2.63;;;34.20;32.00;;;;;;5032395;28;20418;-76
2022/04/24 09:22:25;;;;;;;2.57;2.03;;;35.40;32.70;;;;;;5031816;28;20454;-76
2022/04/24 09:24:56;;;;;;;2.60;2.40;;;36.30;31.50;;;;;;5048975;28;20414;-76
2022/04/24 09:27:32;;;;;;;3.33;2.77;;;36.60;30.40;;;;;;5033346;28;20290;-76
2022/04/24 09:30:05;;;;;;;2.00;1.90;;;36.70;30.20;;;;;;5032457;28;20957;-75
2022/04/24 09:32:43;;;;;;;3.93;2.30;;;36.40;30.40;;;;;;5032840;28;20406;-75
2022/04/24 09:35:09;;;;;;;3.00;2.30;;;36.20;30.60;;;;;;5033026;28;20406;-76
2022/04/24 09:37:41;;;;;;;2.13;1.80;;;36.40;30.70;;;;;;5033385;28;20426;-76
2022/04/24 09:40:07;;;;;;;3.13;2.77;;;37.60;30.70;;;;;;5031534;28;20652;-76
2022/04/24 09:42:33;;;;;;;2.80;2.47;;;38.80;30.00;;;;;;5032701;28;20441;-76
2022/04/24 09:44:59;;;;;;;2.60;2.40;;;39.40;29.80;;;;;;5049110;28;20186;-76
2022/04/24 09:47:26;;;;;;;2.57;2.37;;;39.60;28.80;;;;;;5032890;28;20218;-76
2022/04/24 09:49:53;;;;;;;2.33;2.13;;;40.00;28.80;;;;;;5032853;28;20403;-76
2022/04/24 09:52:22;;;;;;;2.83;2.63;;;40.80;28.40;;;;;;5033849;28;20406;-76
2022/04/24 09:54:50;;;;;;;2.43;2.23;;;41.00;28.10;;;;;;5035042;28;20430;-76
2022/04/24 09:57:17;;;;;;;3.10;2.80;;;41.70;28.10;;;;;;5034664;28;20438;-76
2022/04/24 09:59:45;;;;;;;2.60;2.40;;;42.30;27.50;;;;;;5034892;28;20485;-76
2022/04/24 10:02:12;;;;;;;2.70;2.50;;;43.30;27.40;;;;;;5035368;28;20406;-77
2022/04/24 10:04:39;;;;;;;2.80;2.60;;;44.00;26.20;;;;;;5035147;28;20496;-76
2022/04/24 10:07:06;;;;;;;3.57;2.83;;;43.80;26.00;;;;;;5031797;28;20537;-76
2022/04/24 10:09:37;;;;;;;3.70;3.40;;;44.00;26.20;;;;;;5033155;28;20414;-75
2022/04/24 10:12:08;;;;;;;2.90;2.20;;;43.70;25.70;;;;;;5035900;28;20414;-76
2022/04/24 10:14:52;;;;;;;2.60;2.20;;;43.40;25.90;;;;;;5038093;28;20429;-76
2022/04/24 10:17:54;;;;;;;2.77;2.47;;;43.70;26.00;;;;;;5038243;28;20437;-76
2022/04/24 10:20:33;;;;;;;2.67;2.47;;;44.80;26.30;;;;;;5038962;28;20774;-75
2022/04/24 10:22:59;;;;;;;3.57;3.07;;;45.30;25.50;;;;;;5038673;28;20417;-76
2022/04/24 10:25:31;;;;;;;2.37;2.17;;;45.60;25.60;;;;;;5037911;28;20410;-76
2022/04/24 10:27:56;;;;;;;2.70;2.50;;;46.50;25.50;;;;;;5038422;28;20203;-76
2022/04/24 10:30:24;;;;;;;2.80;2.60;;;47.20;25.00;;;;;;5038352;28;20409;-76
2022/04/24 10:33:11;;;;;;;2.63;2.43;;;47.90;24.80;;;;;;5036341;28;20164;-76
2022/04/24 10:35:49;;;;;;;4.50;4.10;;;48.20;24.00;;;;;;5035356;28;20471;-76
2022/04/24 10:38:17;;;;;;;2.57;2.40;;;48.40;23.90;;;;;;5035024;28;20418;-76
2022/04/24 10:40:55;;;;;;;3.87;3.47;;;48.80;24.40;;;;;;5037006;28;20387;-75
2022/04/24 10:43:21;;;;;;;2.47;2.30;;;49.10;23.60;;;;;;5038512;28;20402;-76
2022/04/24 10:45:47;;;;;;;3.10;2.90;;;49.40;23.50;;;;;;5039919;28;20402;-76
2022/04/24 10:48:14;;;;;;;2.60;2.40;;;49.70;23.40;;;;;;5039155;28;20187;-76
2022/04/24 10:50:47;;;;;;;2.90;2.70;;;49.80;23.20;;;;;;5054556;28;20957;-75
2022/04/24 10:53:13;;;;;;;3.13;2.83;;;49.90;23.00;;;;;;5038565;28;20397;-76
2022/04/24 10:55:40;;;;;;;2.50;2.30;;;50.20;23.20;;;;;;5053362;28;20401;-75
2022/04/24 10:58:06;;;;;;;2.83;2.63;;;50.40;22.90;;;;;;5039596;28;20205;-76
2022/04/24 11:00:37;;;;;;;2.80;2.57;;;50.70;22.90;;;;;;5035285;28;20894;-76
2022/04/24 11:03:13;;;;;;;2.90;2.70;;;50.70;22.80;;;;;;5034538;28;20172;-76
2022/04/24 11:05:41;;;;;;;2.77;2.57;;;50.80;22.60;;;;;;5034701;28;20797;-76
2022/04/24 11:08:08;;;;;;;2.90;2.63;;;50.90;22.50;;;;;;5034241;28;20466;-76
2022/04/24 11:10:42;;;;;;;2.43;2.33;;;51.40;22.60;;;;;;5034469;28;20448;-76
2022/04/24 11:13:12;;;;;;;3.77;3.47;;;51.50;22.40;;;;;;5049704;28;20609;-76
2022/04/24 11:15:42;;;;;;;2.87;2.67;;;51.90;22.50;;;;;;5036736;28;20408;-76
2022/04/24 11:18:19;;;;;;;3.20;2.90;;;52.00;22.30;;;;;;5035511;28;20847;-75
2022/04/24 11:20:53;;;;;;;2.57;2.47;;;52.10;22.00;;;;;;5034064;28;20459;-76
2022/04/24 11:23:20;;;;;;;2.80;2.70;;;51.90;22.00;;;;;;5038311;28;20402;-76
2022/04/24 11:25:45;;;;;;;3.10;2.90;;;51.80;21.90;;;;;;5037563;28;20500;-75
2022/04/24 11:28:11;;;;;;;2.40;2.30;;;51.90;21.90;;;;;;5035928;28;20978;-76
2022/04/24 11:30:38;;;;;;;3.73;3.43;;;52.30;22.70;;;;;;5034325;28;20243;-76
2022/04/24 11:33:08;;;;;;;3.43;3.23;;;52.30;21.70;;;;;;5034016;28;20160;-75
2022/04/24 11:35:36;;;;;;;3.00;2.80;;;51.90;21.70;;;;;;5033859;28;20402;-76
2022/04/24 11:38:06;;;;;;;3.30;3.10;;;51.70;21.80;;;;;;5033742;28;20418;-75
2022/04/24 11:40:33;;;;;;;2.70;2.50;;;51.80;21.90;;;;;;5034031;28;20414;-76
2022/04/24 11:43:06;;;;;;;2.83;2.70;;;51.80;21.60;;;;;;5033094;28;20436;-76
2022/04/24 11:51:16;;;;;;;2.63;2.43;;;50.80;21.40;;;;;;5033890;28;20713;-75
2022/04/24 11:53:42;;;;;;;2.87;2.67;;;48.50;21.30;;;;;;5033395;28;20374;-75
2022/04/24 11:56:11;;;;;;;2.80;2.60;;;46.60;22.00;;;;;;5033767;28;20503;-76
2022/04/24 11:58:39;;;;;;;2.60;2.37;;;46.20;22.80;;;;;;5048709;28;20384;-75
2022/04/24 12:01:07;;;;;;;2.20;2.00;;;46.60;22.80;;;;;;5033250;28;20385;-76
2022/04/24 12:03:34;;;;;;;2.50;2.30;;;46.80;22.70;;;;;;5033274;28;20432;-76
2022/04/24 12:06:02;;;;;;;2.77;2.57;;;47.70;23.20;;;;;;5033372;28;20410;-75
2022/04/24 12:08:49;;;;;;;3.10;2.80;;;48.90;22.70;;;;;;5032818;28;21121;-76
2022/04/24 12:11:31;;;;;;;3.23;2.97;;;49.90;22.30;;;;;;5033548;28;20372;-76
2022/04/24 12:14:08;;;;;;;2.60;2.40;;;50.60;22.10;;;;;;5033627;28;20459;-75
2022/04/24 12:16:34;;;;;;;3.37;3.10;;;49.60;21.60;;;;;;5032901;28;20403;-76
2022/04/24 12:19:01;;;;;;;2.43;2.30;;;48.20;21.60;;;;;;5031293;28;20464;-76
2022/04/24 12:21:31;;;;;;;3.63;3.33;;;46.70;21.90;;;;;;5032865;28;20388;-75
2022/04/24 12:23:58;;;;;;;2.00;1.90;;;44.70;21.90;;;;;;5048210;28;20439;-74
2022/04/24 12:26:24;;;;;;;3.10;2.77;;;43.40;23.00;;;;;;5032726;28;20381;-76
2022/04/24 12:28:50;;;;;;;2.57;2.37;;;43.80;23.50;;;;;;5032469;28;20476;-76
2022/04/24 12:31:27;;;;;;;2.70;2.50;;;44.60;23.30;;;;;;5032767;28;20171;-75
2022/04/24 12:33:55;;;;;;;2.80;2.53;;;45.20;22.90;;;;;;5032686;28;20405;-76
2022/04/24 12:36:22;;;;;;;2.40;2.20;;;46.20;22.90;;;;;;5032622;28;20406;-75
2022/04/24 12:39:04;;;;;;;2.37;2.27;;;47.10;22.60;;;;;;5032284;28;20912;-75
2022/04/24 12:41:30;;;;;;;2.50;2.30;;;46.30;22.10;;;;;;5033192;28;20877;-75
2022/04/24 12:44:04;;;;;;;3.00;2.80;;;44.30;22.20;;;;;;5033134;28;20440;-75
2022/04/24 12:46:31;;;;;;;2.10;1.77;;;42.10;22.50;;;;;;5031122;28;22043;-74
2022/04/24 12:48:58;;;;;;;3.23;2.93;;;40.40;23.40;;;;;;5032182;28;20958;-74
2022/04/24 12:51:25;;;;;;;2.80;2.60;;;40.00;24.20;;;;;;5032447;28;20394;-74
2022/04/24 12:53:52;;;;;;;3.30;2.93;;;40.80;24.60;;;;;;5032076;28;20835;-75
2022/04/24 12:56:18;;;;;;;3.40;2.60;;;42.10;24.40;;;;;;5032270;28;20441;-75